NBEK1: Neosho R at Burlingame Rd nr Emporia KS

Data processed at Wed May 22 2019 23:50


All information presented herein is the property of the government of the United States of America and may be revised or deleted at any time without prior notice.
Dissemination of this information without the expressed written consent of the Public Affairs Office, Tulsa District U.S. Army Corps of Engineers is strictly prohibited.
These data are gathered electronically and, as presented, have not undergone any form of quality control. These data are not guaranteed to be valid or correct.
Go to home page.
Go to station list.
Go to home page.

Upstream stations:

Downstream station:
Previous Day
Next Day
Current Day
    
SHEF ID:       NBEK1     NEOSHO R AT BURLINGAME RD NR EMP
STATION TYPE:  

               PRECIP     STAGE  RIV-FLOW  BAT-LOAD
                   in        ft       cfs      volt
              Ccp-Rev   Ccp-Rev   Ccp-Rev   Ccp-Rev
(US/Central)
05/22 00:00      0.00     25.62     14212     12.89
05/22 01:00      0.00     25.77     14514     12.89
05/22 02:00      0.00     25.88     14737     12.83
05/22 03:00      0.00     25.96     14902     12.83
05/22 04:00      0.00     25.99     14964     12.77
05/22 05:00      0.00     25.99     14964     12.77
05/22 06:00      0.00     25.96     14902     12.71
05/22 07:00      0.00     25.88     14737     12.71
05/22 08:00      0.00     25.81     14595     12.71
05/22 09:00      0.00     25.73     14433     13.18
05/22 10:00      0.00     25.66     14292     13.53
05/22 11:00      0.00     25.58     14133     13.77
05/22 12:00      0.00     25.52     14014     13.83
05/22 13:00      0.00     25.47     13915     13.77
05/22 14:00      0.00     25.41     13798     13.77
05/22 15:00      0.00     25.35     13681     13.77
05/22 16:00      0.00     25.28     13545     13.83
05/22 17:00      0.00     25.21     13411     13.59
05/22 18:00      0.00     25.10     13201     13.42
05/22 19:00      0.00     24.98     12975     13.59
05/22 20:00      0.00     24.81     12734     13.00
05/22 21:00      0.00     24.61     12466     12.95
05/22 22:00      0.00     24.34     12109     12.89
05/22 23:00      0.00     24.06     11749     12.89